createdAt,value
2018-03-02T00:00:08.433Z,44.58
2018-03-02T00:01:08.434Z,44.69
2018-03-02T00:02:08.424Z,44.55
2018-03-02T00:03:08.447Z,44.59
2018-03-02T00:04:08.612Z,44.6
2018-03-02T00:05:08.450Z,44.7
2018-03-02T00:06:08.442Z,44.8
2018-03-02T00:07:08.462Z,44.88
2018-03-02T00:08:08.457Z,44.86
2018-03-02T00:09:08.485Z,44.84
2018-03-02T00:10:08.470Z,44.85
2018-03-02T00:11:08.466Z,45.02
2018-03-02T00:12:08.461Z,45.18
2018-03-02T00:13:08.479Z,45.21
2018-03-02T00:14:08.459Z,45.14
2018-03-02T00:15:08.481Z,45.37
2018-03-02T00:16:08.456Z,45.28
2018-03-02T00:17:08.493Z,45.31
2018-03-02T00:18:08.461Z,45.35
2018-03-02T00:19:08.488Z,45.48
2018-03-02T00:20:08.468Z,45.63
2018-03-02T00:21:08.697Z,45.62
2018-03-02T00:22:08.816Z,45.63
2018-03-02T00:23:08.477Z,45.77
2018-03-02T00:24:08.486Z,45.78
2018-03-02T00:25:08.477Z,45.83
2018-03-02T00:26:08.473Z,45.84
2018-03-02T00:27:08.504Z,45.85
2018-03-02T00:28:08.487Z,45.82
2018-03-02T00:29:08.492Z,45.82
2018-03-02T00:30:08.500Z,45.92
2018-03-02T00:31:08.642Z,46
2018-03-02T00:32:08.661Z,45.86
2018-03-02T00:33:08.487Z,45.84
2018-03-02T00:34:08.492Z,45.87
2018-03-02T00:35:08.579Z,45.9
2018-03-02T00:36:08.497Z,45.94
2018-03-02T00:37:08.521Z,46.08
2018-03-02T00:38:08.494Z,46.04
2018-03-02T00:39:08.512Z,46.14
2018-03-02T00:40:08.520Z,46.2
2018-03-02T00:41:08.513Z,46.29
2018-03-02T00:42:08.515Z,46.34
2018-03-02T00:43:08.522Z,46.32
2018-03-02T00:44:08.521Z,46.36
2018-03-02T00:45:08.520Z,46.49
2018-03-02T00:46:08.750Z,46.37
2018-03-02T00:47:08.535Z,46.41
2018-03-02T00:48:08.691Z,46.41
2018-03-02T00:49:09.541Z,46.5
2018-03-02T00:50:08.530Z,46.49
2018-03-02T00:51:08.558Z,46.57
2018-03-02T00:52:08.547Z,46.44
2018-03-02T00:53:08.550Z,46.55
2018-03-02T00:54:08.560Z,46.58
2018-03-02T00:55:08.564Z,46.56
2018-03-02T00:56:08.558Z,46.47
2018-03-02T00:57:08.556Z,46.57
2018-03-02T00:58:08.561Z,46.72
2018-03-02T00:59:08.558Z,46.76
2018-03-02T01:00:08.574Z,46.64
2018-03-02T01:01:08.557Z,46.8
2018-03-02T01:02:09.008Z,46.78
2018-03-02T01:03:08.586Z,46.8
2018-03-02T01:04:08.579Z,46.89
2018-03-02T01:05:08.564Z,46.94
2018-03-02T01:06:08.586Z,47.02
2018-03-02T01:07:08.587Z,46.97
2018-03-02T01:08:08.577Z,47.01
2018-03-02T01:09:08.593Z,47.14
2018-03-02T01:10:08.592Z,47.25
2018-03-02T01:11:08.601Z,47.13
2018-03-02T01:12:08.613Z,47.2
2018-03-02T01:13:08.604Z,47.07
2018-03-02T01:14:08.616Z,47.07
2018-03-02T01:15:08.610Z,47.12
2018-03-02T01:16:08.613Z,47.28
2018-03-02T01:17:08.613Z,47.27
2018-03-02T01:18:08.644Z,47.18
2018-03-02T01:19:08.609Z,47.29
2018-03-02T01:20:08.617Z,47.36
2018-03-02T01:21:08.619Z,47.47
2018-03-02T01:22:08.641Z,47.43
2018-03-02T01:23:08.656Z,47.48
2018-03-02T01:24:08.629Z,47.57
2018-03-02T01:25:08.639Z,47.49
2018-03-02T01:26:08.638Z,47.64
2018-03-02T01:27:08.688Z,47.75
2018-03-02T01:28:08.644Z,47.66
2018-03-02T01:29:08.651Z,47.85
2018-03-02T01:30:08.653Z,47.72
2018-03-02T01:31:08.660Z,47.77
2018-03-02T01:32:08.677Z,47.9
2018-03-02T01:33:08.655Z,47.88
2018-03-02T01:34:08.683Z,48.01
2018-03-02T01:35:08.735Z,48.11
2018-03-02T01:36:08.947Z,48.03
2018-03-02T01:37:08.672Z,48.04
2018-03-02T01:38:08.689Z,48.04
2018-03-02T01:39:08.682Z,47.93
2018-03-02T01:40:08.682Z,47.85
2018-03-02T01:41:08.712Z,47.92
2018-03-02T01:42:08.685Z,47.94
2018-03-02T01:43:08.710Z,47.92
2018-03-02T01:44:08.705Z,47.87
2018-03-02T01:45:08.706Z,47.9
2018-03-02T01:46:08.727Z,47.99
2018-03-02T01:47:08.718Z,47.97
2018-03-02T01:48:08.714Z,48.01
2018-03-02T01:50:20.916Z,48.2
2018-03-02T01:51:08.748Z,48.28
2018-03-02T01:52:08.706Z,48.32
2018-03-02T01:53:08.718Z,47.98
2018-03-02T01:54:08.725Z,47.93
2018-03-02T01:55:08.733Z,48.05
2018-03-02T01:56:08.853Z,48.06
2018-03-02T01:57:08.727Z,48.11
2018-03-02T01:58:08.725Z,48.22
2018-03-02T01:59:08.742Z,48.2
2018-03-02T02:00:08.737Z,48.1
2018-03-02T02:01:08.762Z,48.3
2018-03-02T02:02:08.769Z,48.31
2018-03-02T02:03:08.752Z,48.39
2018-03-02T02:04:08.758Z,48.41
2018-03-02T02:05:08.752Z,48.21
2018-03-02T02:06:08.764Z,48.34
2018-03-02T02:07:08.780Z,48.27
2018-03-02T02:08:08.774Z,48.22
2018-03-02T02:09:09.060Z,48.31
2018-03-02T02:10:08.836Z,48.17
2018-03-02T02:11:08.786Z,48.31
2018-03-02T02:12:08.786Z,48.28
2018-03-02T02:13:08.797Z,48.48
2018-03-02T02:14:08.805Z,48.4
2018-03-02T02:15:08.805Z,48.43
2018-03-02T02:16:08.816Z,48.45
2018-03-02T02:18:14.976Z,48.61
2018-03-02T02:19:08.826Z,48.59
2018-03-02T02:20:08.850Z,48.58
2018-03-02T02:21:08.818Z,48.47
2018-03-02T02:22:08.825Z,48.49
2018-03-02T02:23:08.831Z,48.53
2018-03-02T02:24:08.827Z,48.62
2018-03-02T02:25:08.861Z,48.68
2018-03-02T02:26:08.830Z,48.58
2018-03-02T02:27:08.838Z,48.48
2018-03-02T02:28:08.840Z,48.76
2018-03-02T02:29:08.843Z,48.78
2018-03-02T02:30:08.852Z,48.82
2018-03-02T02:31:08.852Z,48.89
2018-03-02T02:32:08.853Z,48.76
2018-03-02T02:33:08.854Z,49.08
2018-03-02T02:34:09.125Z,49.19
2018-03-02T02:35:08.860Z,49.11
2018-03-02T02:36:08.849Z,49.05
2018-03-02T02:37:08.867Z,49.19
2018-03-02T02:38:08.872Z,49.14
2018-03-02T02:39:08.905Z,49.07
2018-03-02T02:40:08.848Z,49.18
2018-03-02T02:41:08.868Z,49.16
2018-03-02T02:42:08.893Z,49.37
2018-03-02T02:43:08.876Z,49.3
2018-03-02T02:44:08.871Z,49.45
2018-03-02T02:45:08.893Z,49.37
2018-03-02T02:46:08.912Z,49.31
2018-03-02T02:47:08.890Z,49.36
2018-03-02T02:48:08.886Z,49.36
2018-03-02T02:49:08.924Z,49.42
2018-03-02T02:50:08.907Z,49.53
2018-03-02T02:51:08.915Z,49.55
2018-03-02T02:52:08.906Z,49.68
2018-03-02T02:53:08.908Z,49.63
2018-03-02T02:54:08.932Z,49.68
2018-03-02T02:55:08.918Z,49.82
2018-03-02T02:56:08.946Z,49.82
2018-03-02T02:57:08.921Z,49.87
2018-03-02T02:58:08.937Z,49.8
2018-03-02T02:59:08.953Z,49.82
2018-03-02T03:00:08.937Z,49.76
2018-03-02T03:01:08.955Z,49.84
2018-03-02T03:03:09.065Z,49.87
2018-03-02T03:04:08.983Z,49.88
2018-03-02T03:05:08.961Z,49.88
2018-03-02T03:06:08.953Z,50.01
2018-03-02T03:07:08.963Z,50.05
2018-03-02T03:08:08.951Z,50.13
2018-03-02T03:09:08.971Z,50.13
2018-03-02T03:10:08.968Z,50.1
2018-03-02T03:11:08.977Z,50.23
2018-03-02T03:12:08.995Z,50.37
2018-03-02T03:13:08.963Z,50.36
2018-03-02T03:14:08.965Z,50.48
2018-03-02T03:15:08.987Z,50.49
2018-03-02T03:16:08.971Z,50.59
2018-03-02T03:17:09.257Z,50.57
2018-03-02T03:18:08.981Z,50.63
2018-03-02T03:20:30.065Z,50.55
2018-03-02T03:21:08.988Z,50.58
2018-03-02T03:22:09.021Z,50.67
2018-03-02T03:23:08.999Z,50.6
2018-03-02T03:24:09.006Z,50.57
2018-03-02T03:25:08.997Z,50.61
2018-03-02T03:26:09.010Z,50.53
2018-03-02T03:27:09.040Z,50.53
2018-03-02T03:28:09.012Z,50.48
2018-03-02T03:29:09.043Z,50.53
2018-03-02T03:30:09.039Z,50.45
2018-03-02T03:31:09.038Z,50.61
2018-03-02T03:32:09.042Z,50.71
2018-03-02T03:33:09.303Z,50.8
2018-03-02T03:34:09.042Z,50.78
2018-03-02T03:35:09.064Z,50.92
2018-03-02T03:36:09.040Z,50.89
2018-03-02T03:37:09.046Z,50.89
2018-03-02T03:38:09.349Z,50.87
2018-03-02T03:39:09.048Z,50.88
2018-03-02T03:40:09.037Z,50.74
2018-03-02T03:41:09.028Z,50.76
2018-03-02T03:42:09.254Z,50.87
2018-03-02T03:43:09.057Z,50.94
2018-03-02T03:44:09.096Z,51.16
2018-03-02T03:45:09.334Z,51.22
2018-03-02T03:46:09.052Z,51.22
2018-03-02T03:47:09.054Z,51.19
2018-03-02T03:48:09.066Z,51.29
2018-03-02T03:49:09.065Z,51.47
2018-03-02T03:50:09.120Z,51.6
2018-03-02T03:51:09.076Z,51.61
2018-03-02T03:52:09.287Z,51.46
2018-03-02T03:53:09.071Z,51.46
2018-03-02T03:54:09.066Z,51.39
2018-03-02T03:55:09.106Z,51.52
2018-03-02T03:56:09.092Z,51.52
2018-03-02T03:57:09.087Z,51.41
2018-03-02T03:58:09.074Z,51.42
2018-03-02T03:59:09.778Z,51.58
2018-03-02T04:00:09.171Z,51.45
2018-03-02T04:01:09.081Z,51.48
2018-03-02T04:02:09.094Z,51.43
2018-03-02T04:03:09.099Z,51.53
2018-03-02T04:04:09.108Z,51.63
2018-03-02T04:06:15.399Z,51.52
2018-03-02T04:07:09.103Z,51.5
2018-03-02T04:08:09.160Z,51.56
2018-03-02T04:09:09.112Z,51.61
2018-03-02T04:10:09.127Z,51.68
2018-03-02T04:11:09.112Z,51.73
2018-03-02T04:12:09.137Z,51.77
2018-03-02T04:13:09.178Z,51.81
2018-03-02T04:14:09.147Z,51.74
2018-03-02T04:16:09.217Z,51.76
2018-03-02T04:17:09.158Z,51.97
2018-03-02T04:18:09.153Z,51.92
2018-03-02T04:19:09.151Z,51.84
2018-03-02T04:20:09.201Z,51.85
2018-03-02T04:21:09.176Z,51.99
2018-03-02T04:22:09.536Z,52.03
2018-03-02T04:23:09.178Z,52.01
2018-03-02T04:24:09.183Z,52.05
2018-03-02T04:25:09.200Z,51.99
2018-03-02T04:26:09.176Z,52.07
2018-03-02T04:27:09.222Z,51.99
2018-03-02T04:28:09.202Z,52.07
2018-03-02T04:29:09.198Z,52.18
2018-03-02T04:30:09.204Z,52.15
2018-03-02T04:31:09.209Z,52.21
2018-03-02T04:32:09.228Z,52.15
2018-03-02T04:33:09.514Z,52.21
2018-03-02T04:34:09.223Z,52.09
2018-03-02T04:35:09.217Z,52.17
2018-03-02T04:36:09.223Z,52.12
2018-03-02T04:37:09.228Z,52.34
2018-03-02T04:38:09.238Z,52.56
2018-03-02T04:39:09.224Z,52.58
2018-03-02T04:40:09.231Z,52.49
2018-03-02T04:41:09.238Z,52.54
2018-03-02T04:42:09.234Z,52.63
2018-03-02T04:43:09.271Z,52.56
2018-03-02T04:45:15.426Z,52.21
2018-03-02T04:46:09.247Z,52.27
2018-03-02T04:47:09.248Z,52.3
2018-03-02T04:48:09.264Z,52.3
2018-03-02T04:49:09.238Z,52.4
2018-03-02T04:50:09.255Z,52.58
2018-03-02T04:51:09.249Z,52.5
2018-03-02T04:52:09.285Z,52.54
2018-03-02T04:53:09.242Z,52.66
2018-03-02T04:54:09.254Z,52.74
2018-03-02T04:55:09.258Z,52.77
2018-03-02T04:56:09.277Z,52.81
2018-03-02T04:57:09.285Z,52.79
2018-03-02T04:58:09.276Z,52.88
2018-03-02T04:59:09.271Z,52.81
2018-03-02T05:00:09.270Z,52.82
2018-03-02T05:01:09.267Z,52.79
2018-03-02T05:03:15.667Z,53.04
2018-03-02T05:04:09.291Z,53.03
2018-03-02T05:05:09.281Z,52.97
2018-03-02T05:06:09.287Z,52.94
2018-03-02T05:07:09.293Z,53.03
2018-03-02T05:08:09.353Z,53.04
2018-03-02T05:09:09.290Z,52.97
2018-03-02T05:10:09.295Z,53.05
2018-03-02T05:11:09.301Z,53.06
2018-03-02T05:12:09.479Z,53.14
2018-03-02T05:13:09.295Z,53.18
2018-03-02T05:14:09.327Z,53.13
2018-03-02T05:15:09.324Z,53.21
2018-03-02T05:16:09.318Z,53.12
2018-03-02T05:17:09.312Z,52.93
2018-03-02T05:18:09.332Z,52.92
2018-03-02T05:19:09.355Z,52.92
2018-03-02T05:20:09.332Z,52.71
2018-03-02T05:21:09.427Z,52.83
2018-03-02T05:22:09.344Z,52.87
2018-03-02T05:23:09.334Z,52.99
2018-03-02T05:24:09.356Z,52.95
2018-03-02T05:25:09.350Z,53.17
2018-03-02T05:26:09.599Z,53.07
2018-03-02T05:27:09.334Z,52.96
2018-03-02T05:28:09.336Z,52.9
2018-03-02T05:29:09.336Z,52.94
2018-03-02T05:30:09.381Z,52.89
2018-03-02T05:31:09.374Z,53.04
2018-03-02T05:32:09.358Z,53.07
2018-03-02T05:33:09.346Z,53.02
2018-03-02T05:34:09.357Z,53.07
2018-03-02T05:35:09.396Z,52.96
2018-03-02T05:36:09.389Z,53.35
2018-03-02T05:37:09.435Z,53.73
2018-03-02T05:38:09.366Z,52.84
2018-03-02T05:39:09.404Z,52.84
2018-03-02T05:40:09.376Z,53.05
2018-03-02T05:41:09.683Z,53.05
2018-03-02T05:42:09.412Z,53.12
2018-03-02T05:43:09.396Z,53.09
2018-03-02T05:44:09.392Z,53.09
2018-03-02T05:45:09.408Z,53.17
2018-03-02T05:46:09.402Z,53.09
2018-03-02T05:47:09.452Z,53.24
2018-03-02T05:48:09.435Z,53.1
2018-03-02T05:49:09.408Z,53.27
2018-03-02T05:50:09.408Z,53.18
2018-03-02T05:51:09.409Z,53.11
2018-03-02T05:52:09.416Z,53.25
2018-03-02T05:53:09.587Z,53.37
2018-03-02T05:54:09.425Z,53.42
2018-03-02T05:55:09.413Z,53.53
2018-03-02T05:56:09.423Z,53.5
2018-03-02T05:57:09.430Z,53.48
2018-03-02T05:59:09.489Z,53.48
2018-03-02T06:00:09.486Z,53.38
2018-03-02T06:01:09.447Z,53.46
2018-03-02T06:02:09.594Z,53.37
2018-03-02T06:03:09.459Z,53.4
2018-03-02T06:04:09.451Z,53.32
2018-03-02T06:05:09.473Z,53.44
2018-03-02T06:06:09.469Z,53.65
2018-03-02T06:07:09.515Z,53.57
2018-03-02T06:08:09.456Z,53.52
2018-03-02T06:09:09.469Z,53.56
2018-03-02T06:10:09.731Z,53.47
2018-03-02T06:11:09.468Z,53.58
2018-03-02T06:12:09.478Z,53.7
2018-03-02T06:13:09.477Z,53.76
2018-03-02T06:14:09.479Z,53.57
2018-03-02T06:15:09.513Z,53.56
2018-03-02T06:16:09.505Z,53.49
2018-03-02T06:17:09.525Z,53.64
2018-03-02T06:18:09.522Z,53.54
2018-03-02T06:19:09.530Z,53.6
2018-03-02T06:20:09.509Z,53.73
2018-03-02T06:21:09.542Z,53.57
2018-03-02T06:22:09.522Z,53.5
2018-03-02T06:23:09.515Z,53.58
2018-03-02T06:24:09.519Z,53.67
2018-03-02T06:25:09.524Z,53.81
2018-03-02T06:26:09.696Z,53.83
2018-03-02T06:27:09.513Z,53.83
2018-03-02T06:28:09.524Z,53.96
2018-03-02T06:29:09.522Z,53.89
2018-03-02T06:30:09.534Z,53.94
2018-03-02T06:31:09.566Z,54.07
2018-03-02T06:32:09.528Z,54.03
2018-03-02T06:33:09.548Z,53.94
2018-03-02T06:34:09.541Z,53.89
2018-03-02T06:35:09.548Z,53.78
2018-03-02T06:36:09.607Z,53.95
2018-03-02T06:38:09.655Z,53.96
2018-03-02T06:39:09.558Z,54.04
2018-03-02T06:40:09.590Z,53.83
2018-03-02T06:41:09.594Z,54
2018-03-02T06:42:09.578Z,54.18
2018-03-02T06:43:09.601Z,54.21
2018-03-02T06:44:09.594Z,54.06
2018-03-02T06:45:09.579Z,54.35
2018-03-02T06:46:09.579Z,53.93
2018-03-02T06:47:09.587Z,53.77
2018-03-02T06:48:09.588Z,53.91
2018-03-02T06:49:09.597Z,54.09
2018-03-02T06:50:09.589Z,53.88
2018-03-02T06:51:09.615Z,53.93
2018-03-02T06:52:09.628Z,53.9
2018-03-02T06:53:09.780Z,54.02
2018-03-02T06:54:09.615Z,53.95
2018-03-02T06:55:09.614Z,54.15
2018-03-02T06:56:09.611Z,54.2
2018-03-02T06:57:09.675Z,54.18
2018-03-02T06:58:09.632Z,53.91
2018-03-02T06:59:09.625Z,53.89
2018-03-02T07:00:09.633Z,53.92
2018-03-02T07:01:09.641Z,53.88
2018-03-02T07:02:09.650Z,53.86
2018-03-02T07:03:09.631Z,53.81
2018-03-02T07:04:09.689Z,53.78
2018-03-02T07:05:09.635Z,53.74
2018-03-02T07:06:09.646Z,53.78
2018-03-02T07:07:09.668Z,53.8
2018-03-02T07:08:09.682Z,53.8
2018-03-02T07:09:09.653Z,53.81
2018-03-02T07:10:09.659Z,53.67
2018-03-02T07:11:09.663Z,53.79
2018-03-02T07:12:09.684Z,53.96
2018-03-02T07:13:09.668Z,53.89
2018-03-02T07:14:09.686Z,53.82
2018-03-02T07:15:09.673Z,53.74
2018-03-02T07:16:09.664Z,53.8
2018-03-02T07:17:09.721Z,53.88
2018-03-02T07:18:09.678Z,53.66
2018-03-02T07:19:09.680Z,53.68
2018-03-02T07:20:09.799Z,53.72
2018-03-02T07:21:09.692Z,53.7
2018-03-02T07:22:09.730Z,53.7
2018-03-02T07:23:09.705Z,53.74
2018-03-02T07:24:09.706Z,53.75
2018-03-02T07:25:09.694Z,53.61
2018-03-02T07:26:09.924Z,53.68
2018-03-02T07:27:09.715Z,53.63
2018-03-02T07:28:09.705Z,53.54
2018-03-02T07:29:09.730Z,53.56
2018-03-02T07:30:09.758Z,53.5
2018-03-02T07:31:09.708Z,53.55
2018-03-02T07:32:09.728Z,53.45
2018-03-02T07:33:09.730Z,53.31
2018-03-02T07:34:09.899Z,53.61
2018-03-02T07:35:09.744Z,53.68
2018-03-02T07:36:09.741Z,53.7
2018-03-02T07:37:10.045Z,53.58
2018-03-02T07:38:09.725Z,53.52
2018-03-02T07:39:09.771Z,53.42
2018-03-02T07:40:09.804Z,53.56
2018-03-02T07:41:09.760Z,53.4
2018-03-02T07:42:09.749Z,53.39
2018-03-02T07:43:09.756Z,53.39
2018-03-02T07:44:09.798Z,53.34
2018-03-02T07:45:09.765Z,53.46
2018-03-02T07:46:09.777Z,53.61
2018-03-02T07:47:09.802Z,53.61
2018-03-02T07:48:09.776Z,53.47
2018-03-02T07:49:09.875Z,53.5
2018-03-02T07:50:09.839Z,53.41
2018-03-02T07:51:09.775Z,53.46
2018-03-02T07:52:09.784Z,53.51
2018-03-02T07:53:09.790Z,53.51
2018-03-02T07:54:09.791Z,53.41
2018-03-02T07:55:09.834Z,53.32
2018-03-02T07:56:09.837Z,53.27
2018-03-02T07:57:09.804Z,53.3
2018-03-02T07:58:09.794Z,53.3
2018-03-02T07:59:09.801Z,53.33
2018-03-02T08:00:09.814Z,53.28
2018-03-02T08:01:09.862Z,53.02
2018-03-02T08:02:09.829Z,53.18
2018-03-02T08:03:09.835Z,53.14
2018-03-02T08:04:09.834Z,53.32
2018-03-02T08:05:09.833Z,53.33
2018-03-02T08:06:09.869Z,53.37
2018-03-02T08:07:09.841Z,53.25
2018-03-02T08:08:09.842Z,53.29
2018-03-02T08:09:09.860Z,53.23
2018-03-02T08:10:09.922Z,53.2
2018-03-02T08:11:09.889Z,53.11
2018-03-02T08:12:09.863Z,53.08
2018-03-02T08:13:09.868Z,53.13
2018-03-02T08:14:09.876Z,53.1
2018-03-02T08:15:09.898Z,53.12
2018-03-02T08:16:10.082Z,53.25
2018-03-02T08:17:09.894Z,53.22
2018-03-02T08:18:09.905Z,53.12
2018-03-02T08:19:09.910Z,53.1
2018-03-02T08:20:09.901Z,53.17
2018-03-02T08:21:09.929Z,53.1
2018-03-02T08:22:09.913Z,53.3
2018-03-02T08:23:09.915Z,52.97
2018-03-02T08:24:09.929Z,53.06
2018-03-02T08:25:09.919Z,53.07
2018-03-02T08:26:10.102Z,53.13
2018-03-02T08:27:09.962Z,53.19
2018-03-02T08:28:09.921Z,53.08
2018-03-02T08:29:09.910Z,52.85
2018-03-02T08:30:09.915Z,52.86
2018-03-02T08:31:09.957Z,52.83
2018-03-02T08:32:09.926Z,52.84
2018-03-02T08:33:09.926Z,52.95
2018-03-02T08:34:09.931Z,52.68
2018-03-02T08:35:09.940Z,52.43
2018-03-02T08:36:10.008Z,52.19
2018-03-02T08:37:09.962Z,52.19
2018-03-02T08:38:09.956Z,52.23
2018-03-02T08:39:09.962Z,52.26
2018-03-02T08:40:09.966Z,52.18
2018-03-02T08:41:09.996Z,51.96
2018-03-02T08:42:09.981Z,52.08
2018-03-02T08:43:10.058Z,52.1
2018-03-02T08:44:09.976Z,52.05
2018-03-02T08:45:09.984Z,52.01
2018-03-02T08:46:10.248Z,51.9
2018-03-02T08:47:09.996Z,51.83
2018-03-02T08:48:10.004Z,51.78
2018-03-02T08:49:09.990Z,51.82
2018-03-02T08:50:09.983Z,51.93
2018-03-02T08:51:10.012Z,51.88
2018-03-02T08:52:10.000Z,51.75
2018-03-02T08:53:10.014Z,51.78
2018-03-02T08:54:10.021Z,51.75
2018-03-02T08:55:10.021Z,51.65
2018-03-02T08:56:10.057Z,51.69
2018-03-02T08:57:10.042Z,51.75
2018-03-02T08:58:10.049Z,51.81
2018-03-02T08:59:10.058Z,51.88
2018-03-02T09:00:10.254Z,51.7
2018-03-02T09:01:10.313Z,51.78
2018-03-02T09:02:10.060Z,51.69
2018-03-02T09:03:10.069Z,51.53
2018-03-02T09:04:10.065Z,51.43
2018-03-02T09:05:10.079Z,51.47
2018-03-02T09:06:10.107Z,51.36
2018-03-02T09:07:10.059Z,51.3
2018-03-02T09:08:10.073Z,51.24
2018-03-02T09:09:10.081Z,51.27
2018-03-02T09:10:10.083Z,51.45
2018-03-02T09:11:10.070Z,51.65
2018-03-02T09:12:10.098Z,51.57
2018-03-02T09:13:10.081Z,51.39
2018-03-02T09:14:10.092Z,51.29
2018-03-02T09:15:10.104Z,51.23
2018-03-02T09:16:10.138Z,51.4
2018-03-02T09:17:10.100Z,51.36
2018-03-02T09:18:10.103Z,51.4
2018-03-02T09:19:10.126Z,51.4
2018-03-02T09:20:10.120Z,51.22
2018-03-02T09:21:10.130Z,51.11
2018-03-02T09:22:10.146Z,51.11
2018-03-02T09:23:10.129Z,51.2
2018-03-02T09:24:10.131Z,51.3
2018-03-02T09:25:10.130Z,51.17
2018-03-02T09:26:10.137Z,51.03
2018-03-02T09:27:10.145Z,50.82
2018-03-02T09:28:10.132Z,50.92
2018-03-02T09:29:10.184Z,51.07
2018-03-02T09:30:10.344Z,51.1
2018-03-02T09:31:10.136Z,51.22
2018-03-02T09:32:10.164Z,51.1
2018-03-02T09:33:10.187Z,51.09
2018-03-02T09:34:10.143Z,51.02
2018-03-02T09:35:10.151Z,50.98
2018-03-02T09:36:10.161Z,50.7
2018-03-02T09:37:10.172Z,50.72
2018-03-02T09:38:10.144Z,50.8
2018-03-02T09:39:10.164Z,50.8
2018-03-02T09:40:10.157Z,50.79
2018-03-02T09:41:10.172Z,50.63
2018-03-02T09:42:10.194Z,50.54
2018-03-02T09:43:10.185Z,50.48
2018-03-02T09:44:10.172Z,50.86
2018-03-02T09:45:10.196Z,50.91
2018-03-02T09:46:10.175Z,50.88
2018-03-02T09:47:10.193Z,50.68
2018-03-02T09:48:10.212Z,50.59
2018-03-02T09:49:10.184Z,50.66
2018-03-02T09:50:10.191Z,50.39
2018-03-02T09:51:10.186Z,50.48
2018-03-02T09:52:10.274Z,50.49
2018-03-02T09:53:10.216Z,50.44
2018-03-02T09:54:10.217Z,50.4
2018-03-02T09:55:10.197Z,50.39
2018-03-02T09:56:10.216Z,50.42
2018-03-02T09:57:10.206Z,50.5
2018-03-02T09:58:10.414Z,50.45
2018-03-02T09:59:10.293Z,50.38
2018-03-02T10:00:10.549Z,50.39
2018-03-02T10:01:10.216Z,50.51
2018-03-02T10:02:10.225Z,50.55
2018-03-02T10:03:10.404Z,50.53
2018-03-02T10:04:10.226Z,50.75
2018-03-02T10:05:10.236Z,50.61
2018-03-02T10:06:10.261Z,50.56
2018-03-02T10:07:10.243Z,50.63
2018-03-02T10:08:10.248Z,50.53
2018-03-02T10:09:10.276Z,50.32
2018-03-02T10:10:10.241Z,49.86
2018-03-02T10:11:10.248Z,49.62
2018-03-02T10:12:10.255Z,49.62
2018-03-02T10:13:10.275Z,49.09
2018-03-02T10:14:10.292Z,48.73
2018-03-02T10:15:10.268Z,48.6
2018-03-02T10:16:10.275Z,48.66
2018-03-02T10:17:10.273Z,48.58
2018-03-02T10:18:10.395Z,48.86
2018-03-02T10:19:10.295Z,48.66
2018-03-02T10:20:10.279Z,48.47
2018-03-02T10:21:10.293Z,48.38
2018-03-02T10:22:10.301Z,48.31
2018-03-02T10:23:10.308Z,48.31
2018-03-02T10:24:10.357Z,48.12
2018-03-02T10:25:10.308Z,48.36
2018-03-02T10:26:10.297Z,48.36
2018-03-02T10:27:10.319Z,48.11
2018-03-02T10:28:10.380Z,48.03
2018-03-02T10:29:10.342Z,48.25
2018-03-02T10:30:10.327Z,48
2018-03-02T10:31:10.331Z,47.99
2018-03-02T10:32:10.337Z,48.04
2018-03-02T10:33:13.479Z,47.98
2018-03-02T10:34:10.343Z,47.86
2018-03-02T10:35:10.342Z,47.63
2018-03-02T10:36:10.349Z,47.66
2018-03-02T10:37:10.359Z,47.68
2018-03-02T10:38:10.638Z,47.41
2018-03-02T10:39:10.390Z,47.11
2018-03-02T10:40:10.358Z,47.22
2018-03-02T10:41:10.361Z,47.32
2018-03-02T10:42:10.409Z,47.05
2018-03-02T10:43:10.403Z,46.91
2018-03-02T10:44:10.375Z,47.14
2018-03-02T10:45:10.390Z,47.42
2018-03-02T10:46:10.399Z,47.13
2018-03-02T10:47:10.395Z,47.05
2018-03-02T10:48:10.423Z,47.1
2018-03-02T10:49:10.401Z,47.31
2018-03-02T10:50:10.416Z,47.32
2018-03-02T10:51:10.405Z,47.66
2018-03-02T10:52:10.407Z,47.69
2018-03-02T10:53:10.501Z,47.66
2018-03-02T10:54:10.503Z,47.28
2018-03-02T10:55:10.444Z,47.24
2018-03-02T10:56:10.555Z,47.36
2018-03-02T10:57:10.422Z,47.37
2018-03-02T10:58:10.441Z,47.21
2018-03-02T10:59:10.417Z,47.19
2018-03-02T11:00:10.429Z,47.31
2018-03-02T11:01:10.436Z,47.47
2018-03-02T11:02:10.455Z,47.23
2018-03-02T11:03:10.465Z,47.33
2018-03-02T11:04:10.441Z,47.48
2018-03-02T11:05:10.446Z,47.43
2018-03-02T11:06:10.448Z,47.5
2018-03-02T11:07:10.461Z,47.42
2018-03-02T11:08:10.686Z,47.42
2018-03-02T11:09:10.450Z,47.41
2018-03-02T11:10:10.458Z,47.56
2018-03-02T11:11:10.455Z,47.69
2018-03-02T11:12:10.461Z,47.58
2018-03-02T11:13:10.499Z,47.45
2018-03-02T11:14:10.477Z,47.42
2018-03-02T11:15:10.513Z,47.1
2018-03-02T11:16:10.482Z,46.82
2018-03-02T11:17:10.493Z,46.98
2018-03-02T11:18:10.494Z,46.93
2018-03-02T11:19:10.483Z,46.78
2018-03-02T11:20:10.489Z,46.67
2018-03-02T11:21:10.495Z,46.7
2018-03-02T11:22:10.543Z,46.63
2018-03-02T11:23:10.640Z,46.59
2018-03-02T11:24:10.515Z,46.6
2018-03-02T11:25:10.522Z,46.5
2018-03-02T11:26:10.508Z,46.54
2018-03-02T11:27:10.509Z,46.71
2018-03-02T11:28:10.536Z,46.34
2018-03-02T11:29:10.505Z,46.33
2018-03-02T11:30:10.503Z,46.28
2018-03-02T11:31:10.525Z,46.41
2018-03-02T11:32:10.536Z,46.06
2018-03-02T11:33:10.747Z,46.07
2018-03-02T11:34:10.516Z,45.99
2018-03-02T11:35:10.521Z,46.14
2018-03-02T11:36:10.526Z,45.98
2018-03-02T11:37:10.541Z,46.1
2018-03-02T11:38:10.539Z,46.14
2018-03-02T11:39:10.538Z,46.04
2018-03-02T11:40:10.548Z,46.1
2018-03-02T11:41:10.542Z,45.96
2018-03-02T11:42:10.551Z,46.03
2018-03-02T11:43:10.574Z,45.72
2018-03-02T11:44:10.578Z,45.39
2018-03-02T11:45:10.558Z,45.69
2018-03-02T11:46:10.555Z,45.71
2018-03-02T11:47:10.564Z,45.7
2018-03-02T11:48:10.600Z,45.62
2018-03-02T11:49:10.579Z,45.15
2018-03-02T11:50:10.592Z,45.25
2018-03-02T11:51:10.567Z,45.32
2018-03-02T11:52:10.567Z,45.21
2018-03-02T11:53:10.597Z,45.41
2018-03-02T11:54:10.620Z,45.65
2018-03-02T11:55:10.613Z,45.32
2018-03-02T11:56:10.594Z,45.2
2018-03-02T11:57:10.588Z,45.08
2018-03-02T11:58:10.580Z,45.35
2018-03-02T11:59:10.613Z,45.2
2018-03-02T12:00:10.620Z,45.15
2018-03-02T12:01:10.604Z,44.92
2018-03-02T12:02:10.667Z,44.88
2018-03-02T12:03:10.609Z,44.81
2018-03-02T12:04:10.604Z,44.83
2018-03-02T12:05:10.642Z,44.64
2018-03-02T12:06:10.606Z,44.76
2018-03-02T12:07:10.622Z,44.53
2018-03-02T12:08:10.612Z,44.78
2018-03-02T12:09:10.622Z,44.57
2018-03-02T12:10:10.648Z,44.57
2018-03-02T12:11:10.630Z,44.45
2018-03-02T12:12:10.619Z,44.38
2018-03-02T12:13:10.626Z,44.9
2018-03-02T12:14:10.629Z,44.69
2018-03-02T12:15:10.673Z,44.43
2018-03-02T12:16:10.653Z,44.47
2018-03-02T12:17:10.661Z,44.74
2018-03-02T12:18:10.642Z,44.62
2018-03-02T12:19:10.659Z,44.68
2018-03-02T12:20:10.647Z,44.48
2018-03-02T12:21:10.674Z,44.11
2018-03-02T12:22:10.686Z,44.24
2018-03-02T12:23:10.657Z,44.55
2018-03-02T12:24:10.661Z,44.51
2018-03-02T12:25:10.831Z,44.56
2018-03-02T12:26:10.656Z,44.31
2018-03-02T12:27:10.681Z,44.25
2018-03-02T12:28:10.668Z,44.28
2018-03-02T12:29:10.675Z,44.14
2018-03-02T12:30:10.781Z,44.31
2018-03-02T12:31:10.915Z,44.44
2018-03-02T12:32:10.698Z,44.47
2018-03-02T12:33:10.812Z,44.22
2018-03-02T12:34:10.709Z,44.24
2018-03-02T12:35:10.721Z,44.23
2018-03-02T12:36:10.718Z,43.91
2018-03-02T12:37:10.836Z,44.11
2018-03-02T12:38:10.722Z,44.15
2018-03-02T12:39:10.756Z,43.85
2018-03-02T12:40:10.756Z,43.98
2018-03-02T12:41:10.759Z,44.23
2018-03-02T12:42:10.762Z,44.09
2018-03-02T12:43:11.003Z,44.08
2018-03-02T12:44:10.783Z,43.96
2018-03-02T12:45:11.731Z,44.21
2018-03-02T12:46:10.805Z,44.1
2018-03-02T12:47:10.765Z,44.08
2018-03-02T12:48:10.820Z,43.84
2018-03-02T12:49:11.101Z,44.03
2018-03-02T12:50:10.794Z,44.17
2018-03-02T12:51:10.847Z,43.94
2018-03-02T12:52:10.750Z,43.86
2018-03-02T12:53:10.766Z,43.98
2018-03-02T12:54:10.750Z,43.86
2018-03-02T12:55:11.101Z,43.36
2018-03-02T12:56:10.752Z,43.78
2018-03-02T12:57:10.785Z,43.73
2018-03-02T12:58:10.772Z,43.74
2018-03-02T12:59:10.759Z,43.96
2018-03-02T13:00:10.800Z,43.96
2018-03-02T13:01:10.772Z,43.72
2018-03-02T13:02:10.778Z,43.82
2018-03-02T13:03:10.852Z,43.77
2018-03-02T13:04:10.795Z,43.72
2018-03-02T13:05:10.801Z,43.81